sensor_id;sensor_type;location;lat;lon;timestamp;P1;durP1;ratioP1;P2;durP2;ratioP2
44862;SDS011;30597;49.628;10.850;2023-03-14T00:00:32;3.73;;;3.20;;
44862;SDS011;30597;49.628;10.850;2023-03-14T00:02:58;3.50;;;3.00;;
44862;SDS011;30597;49.628;10.850;2023-03-14T00:05:24;3.93;;;3.53;;
44862;SDS011;30597;49.628;10.850;2023-03-14T00:07:49;3.27;;;3.00;;
44862;SDS011;30597;49.628;10.850;2023-03-14T00:10:15;3.60;;;3.30;;
44862;SDS011;30597;49.628;10.850;2023-03-14T00:12:41;3.60;;;3.30;;
44862;SDS011;30597;49.628;10.850;2023-03-14T00:15:07;2.97;;;2.63;;
44862;SDS011;30597;49.628;10.850;2023-03-14T00:17:34;3.93;;;3.53;;
44862;SDS011;30597;49.628;10.850;2023-03-14T00:20:00;4.57;;;3.00;;
44862;SDS011;30597;49.628;10.850;2023-03-14T00:22:36;3.90;;;3.50;;
44862;SDS011;30597;49.628;10.850;2023-03-14T00:25:03;3.50;;;3.20;;
44862;SDS011;30597;49.628;10.850;2023-03-14T00:27:29;3.70;;;3.37;;
44862;SDS011;30597;49.628;10.850;2023-03-14T00:29:55;3.67;;;3.30;;
44862;SDS011;30597;49.628;10.850;2023-03-14T00:32:20;3.73;;;3.43;;
44862;SDS011;30597;49.628;10.850;2023-03-14T00:34:46;3.40;;;3.10;;
44862;SDS011;30597;49.628;10.850;2023-03-14T00:37:13;3.77;;;3.40;;
44862;SDS011;30597;49.628;10.850;2023-03-14T00:39:39;3.63;;;3.30;;
44862;SDS011;30597;49.628;10.850;2023-03-14T00:42:04;3.67;;;3.37;;
44862;SDS011;30597;49.628;10.850;2023-03-14T00:44:30;3.60;;;3.27;;
44862;SDS011;30597;49.628;10.850;2023-03-14T00:46:56;3.63;;;3.33;;
44862;SDS011;30597;49.628;10.850;2023-03-14T00:49:22;3.77;;;3.47;;
44862;SDS011;30597;49.628;10.850;2023-03-14T00:51:48;3.57;;;3.00;;
44862;SDS011;30597;49.628;10.850;2023-03-14T00:54:13;3.83;;;3.53;;
44862;SDS011;30597;49.628;10.850;2023-03-14T00:56:39;4.83;;;3.70;;
44862;SDS011;30597;49.628;10.850;2023-03-14T00:59:04;3.90;;;3.40;;
44862;SDS011;30597;49.628;10.850;2023-03-14T01:01:30;3.90;;;3.60;;
44862;SDS011;30597;49.628;10.850;2023-03-14T01:03:55;3.97;;;3.00;;
44862;SDS011;30597;49.628;10.850;2023-03-14T01:06:22;3.70;;;3.30;;
44862;SDS011;30597;49.628;10.850;2023-03-14T01:08:49;3.70;;;3.37;;
44862;SDS011;30597;49.628;10.850;2023-03-14T01:11:20;3.90;;;3.50;;
44862;SDS011;30597;49.628;10.850;2023-03-14T01:13:53;3.37;;;3.07;;
44862;SDS011;30597;49.628;10.850;2023-03-14T01:16:20;3.10;;;2.80;;
44862;SDS011;30597;49.628;10.850;2023-03-14T01:18:47;4.20;;;3.80;;
44862;SDS011;30597;49.628;10.850;2023-03-14T01:21:14;3.47;;;3.17;;
44862;SDS011;30597;49.628;10.850;2023-03-14T01:23:46;4.50;;;3.40;;
44862;SDS011;30597;49.628;10.850;2023-03-14T01:26:13;4.00;;;3.60;;
44862;SDS011;30597;49.628;10.850;2023-03-14T01:28:40;3.57;;;3.27;;
44862;SDS011;30597;49.628;10.850;2023-03-14T01:31:07;3.40;;;3.10;;
44862;SDS011;30597;49.628;10.850;2023-03-14T01:33:35;3.60;;;2.93;;
44862;SDS011;30597;49.628;10.850;2023-03-14T01:36:01;3.70;;;3.30;;
44862;SDS011;30597;49.628;10.850;2023-03-14T01:38:29;4.00;;;3.70;;
44862;SDS011;30597;49.628;10.850;2023-03-14T01:40:56;3.50;;;3.20;;
44862;SDS011;30597;49.628;10.850;2023-03-14T01:43:22;4.00;;;3.50;;
44862;SDS011;30597;49.628;10.850;2023-03-14T01:48:44;3.20;;;2.90;;
44862;SDS011;30597;49.628;10.850;2023-03-14T01:51:12;3.70;;;3.30;;
44862;SDS011;30597;49.628;10.850;2023-03-14T01:53:42;4.57;;;4.17;;
44862;SDS011;30597;49.628;10.850;2023-03-14T01:56:09;3.83;;;3.53;;
44862;SDS011;30597;49.628;10.850;2023-03-14T01:58:37;3.40;;;2.87;;
44862;SDS011;30597;49.628;10.850;2023-03-14T02:01:05;4.07;;;3.40;;
44862;SDS011;30597;49.628;10.850;2023-03-14T02:03:32;3.47;;;3.10;;
44862;SDS011;30597;49.628;10.850;2023-03-14T02:06:08;3.37;;;2.87;;
44862;SDS011;30597;49.628;10.850;2023-03-14T02:08:35;3.97;;;3.50;;
44862;SDS011;30597;49.628;10.850;2023-03-14T02:11:02;3.33;;;3.00;;
44862;SDS011;30597;49.628;10.850;2023-03-14T02:13:29;3.47;;;3.10;;
44862;SDS011;30597;49.628;10.850;2023-03-14T02:15:54;3.40;;;3.10;;
44862;SDS011;30597;49.628;10.850;2023-03-14T02:18:20;3.70;;;2.97;;
44862;SDS011;30597;49.628;10.850;2023-03-14T02:21:07;3.30;;;3.00;;
44862;SDS011;30597;49.628;10.850;2023-03-14T02:23:40;3.27;;;2.97;;
44862;SDS011;30597;49.628;10.850;2023-03-14T02:26:22;3.60;;;3.30;;
44862;SDS011;30597;49.628;10.850;2023-03-14T02:28:50;3.10;;;2.70;;
44862;SDS011;30597;49.628;10.850;2023-03-14T02:31:18;3.50;;;3.20;;
44862;SDS011;30597;49.628;10.850;2023-03-14T02:33:46;3.87;;;3.40;;
44862;SDS011;30597;49.628;10.850;2023-03-14T02:36:13;3.73;;;3.43;;
44862;SDS011;30597;49.628;10.850;2023-03-14T02:41:05;3.83;;;3.20;;
44862;SDS011;30597;49.628;10.850;2023-03-14T02:43:31;3.47;;;3.10;;
44862;SDS011;30597;49.628;10.850;2023-03-14T02:45:57;3.80;;;3.17;;
44862;SDS011;30597;49.628;10.850;2023-03-14T02:48:30;2.97;;;2.67;;
44862;SDS011;30597;49.628;10.850;2023-03-14T02:51:00;3.13;;;2.83;;
44862;SDS011;30597;49.628;10.850;2023-03-14T02:53:27;3.27;;;2.97;;
44862;SDS011;30597;49.628;10.850;2023-03-14T02:55:55;2.60;;;2.40;;
44862;SDS011;30597;49.628;10.850;2023-03-14T02:58:20;3.80;;;3.50;;
44862;SDS011;30597;49.628;10.850;2023-03-14T03:00:46;3.77;;;3.47;;
44862;SDS011;30597;49.628;10.850;2023-03-14T03:03:12;3.70;;;3.40;;
44862;SDS011;30597;49.628;10.850;2023-03-14T03:05:37;3.70;;;3.40;;
44862;SDS011;30597;49.628;10.850;2023-03-14T03:08:03;3.30;;;3.00;;
44862;SDS011;30597;49.628;10.850;2023-03-14T03:10:29;3.40;;;3.03;;
44862;SDS011;30597;49.628;10.850;2023-03-14T03:12:55;2.60;;;2.40;;
44862;SDS011;30597;49.628;10.850;2023-03-14T03:15:21;3.40;;;3.07;;
44862;SDS011;30597;49.628;10.850;2023-03-14T03:17:47;2.93;;;2.73;;
44862;SDS011;30597;49.628;10.850;2023-03-14T03:20:12;3.30;;;3.00;;
44862;SDS011;30597;49.628;10.850;2023-03-14T03:22:38;3.37;;;3.07;;
44862;SDS011;30597;49.628;10.850;2023-03-14T03:25:04;3.27;;;2.90;;
44862;SDS011;30597;49.628;10.850;2023-03-14T03:27:31;3.30;;;2.93;;
44862;SDS011;30597;49.628;10.850;2023-03-14T03:29:58;2.90;;;2.70;;
44862;SDS011;30597;49.628;10.850;2023-03-14T03:32:24;3.53;;;3.00;;
44862;SDS011;30597;49.628;10.850;2023-03-14T03:34:50;3.60;;;3.30;;
44862;SDS011;30597;49.628;10.850;2023-03-14T03:37:16;3.53;;;3.23;;
44862;SDS011;30597;49.628;10.850;2023-03-14T03:39:42;3.10;;;2.80;;
44862;SDS011;30597;49.628;10.850;2023-03-14T03:42:07;2.70;;;2.50;;
44862;SDS011;30597;49.628;10.850;2023-03-14T03:44:33;3.20;;;2.67;;
44862;SDS011;30597;49.628;10.850;2023-03-14T03:46:58;2.67;;;2.47;;
44862;SDS011;30597;49.628;10.850;2023-03-14T03:49:27;3.93;;;2.57;;
44862;SDS011;30597;49.628;10.850;2023-03-14T03:51:54;4.20;;;3.00;;
44862;SDS011;30597;49.628;10.850;2023-03-14T03:54:20;3.43;;;3.13;;
44862;SDS011;30597;49.628;10.850;2023-03-14T03:56:45;2.93;;;2.60;;
44862;SDS011;30597;49.628;10.850;2023-03-14T03:59:11;2.53;;;2.33;;
44862;SDS011;30597;49.628;10.850;2023-03-14T04:01:36;2.77;;;2.57;;
44862;SDS011;30597;49.628;10.850;2023-03-14T04:04:02;3.60;;;2.70;;
44862;SDS011;30597;49.628;10.850;2023-03-14T04:06:27;2.97;;;2.73;;
44862;SDS011;30597;49.628;10.850;2023-03-14T04:08:53;3.33;;;2.93;;
44862;SDS011;30597;49.628;10.850;2023-03-14T04:11:19;3.33;;;3.03;;
44862;SDS011;30597;49.628;10.850;2023-03-14T04:13:44;3.10;;;2.60;;
44862;SDS011;30597;49.628;10.850;2023-03-14T04:16:17;3.70;;;2.97;;
44862;SDS011;30597;49.628;10.850;2023-03-14T04:18:44;2.77;;;2.57;;
44862;SDS011;30597;49.628;10.850;2023-03-14T04:21:10;2.77;;;2.57;;
44862;SDS011;30597;49.628;10.850;2023-03-14T04:23:36;3.40;;;2.90;;
44862;SDS011;30597;49.628;10.850;2023-03-14T04:26:02;3.13;;;2.83;;
44862;SDS011;30597;49.628;10.850;2023-03-14T04:28:27;2.70;;;2.50;;
44862;SDS011;30597;49.628;10.850;2023-03-14T04:30:53;2.97;;;2.67;;
44862;SDS011;30597;49.628;10.850;2023-03-14T04:33:18;3.27;;;2.97;;
44862;SDS011;30597;49.628;10.850;2023-03-14T04:35:44;3.00;;;2.70;;
44862;SDS011;30597;49.628;10.850;2023-03-14T04:38:10;2.67;;;2.43;;
44862;SDS011;30597;49.628;10.850;2023-03-14T04:40:40;2.50;;;2.10;;
44862;SDS011;30597;49.628;10.850;2023-03-14T04:43:06;2.77;;;2.40;;
44862;SDS011;30597;49.628;10.850;2023-03-14T04:45:34;3.00;;;2.70;;
44862;SDS011;30597;49.628;10.850;2023-03-14T04:48:00;2.50;;;2.30;;
44862;SDS011;30597;49.628;10.850;2023-03-14T04:50:25;3.00;;;2.73;;
44862;SDS011;30597;49.628;10.850;2023-03-14T04:52:51;3.17;;;2.37;;
44862;SDS011;30597;49.628;10.850;2023-03-14T04:55:16;2.87;;;2.57;;
44862;SDS011;30597;49.628;10.850;2023-03-14T04:57:42;4.47;;;3.07;;
44862;SDS011;30597;49.628;10.850;2023-03-14T05:00:08;2.67;;;2.47;;
44862;SDS011;30597;49.628;10.850;2023-03-14T05:02:34;3.57;;;3.17;;
44862;SDS011;30597;49.628;10.850;2023-03-14T05:05:00;2.90;;;2.60;;
44862;SDS011;30597;49.628;10.850;2023-03-14T05:07:26;2.57;;;2.37;;
44862;SDS011;30597;49.628;10.850;2023-03-14T05:09:51;2.40;;;2.20;;
44862;SDS011;30597;49.628;10.850;2023-03-14T05:12:18;2.63;;;2.43;;
44862;SDS011;30597;49.628;10.850;2023-03-14T05:14:44;2.50;;;2.20;;
44862;SDS011;30597;49.628;10.850;2023-03-14T05:17:10;3.03;;;2.73;;
44862;SDS011;30597;49.628;10.850;2023-03-14T05:19:36;3.07;;;2.77;;
44862;SDS011;30597;49.628;10.850;2023-03-14T05:22:02;2.23;;;2.03;;
44862;SDS011;30597;49.628;10.850;2023-03-14T05:24:27;2.37;;;2.17;;
44862;SDS011;30597;49.628;10.850;2023-03-14T05:26:53;2.30;;;2.10;;
44862;SDS011;30597;49.628;10.850;2023-03-14T05:29:19;3.20;;;2.90;;
44862;SDS011;30597;49.628;10.850;2023-03-14T05:31:44;2.60;;;2.30;;
44862;SDS011;30597;49.628;10.850;2023-03-14T05:34:10;2.60;;;2.40;;
44862;SDS011;30597;49.628;10.850;2023-03-14T05:36:35;3.23;;;2.93;;
44862;SDS011;30597;49.628;10.850;2023-03-14T05:39:01;3.00;;;2.47;;
44862;SDS011;30597;49.628;10.850;2023-03-14T05:41:26;2.73;;;2.53;;
44862;SDS011;30597;49.628;10.850;2023-03-14T05:43:52;2.57;;;2.10;;
44862;SDS011;30597;49.628;10.850;2023-03-14T05:46:17;2.40;;;2.20;;
44862;SDS011;30597;49.628;10.850;2023-03-14T05:48:43;3.10;;;2.63;;
44862;SDS011;30597;49.628;10.850;2023-03-14T05:51:08;2.20;;;2.00;;
44862;SDS011;30597;49.628;10.850;2023-03-14T05:53:34;2.77;;;2.57;;
44862;SDS011;30597;49.628;10.850;2023-03-14T05:55:59;2.53;;;2.33;;
44862;SDS011;30597;49.628;10.850;2023-03-14T05:58:25;3.00;;;2.70;;
44862;SDS011;30597;49.628;10.850;2023-03-14T06:00:50;2.40;;;2.20;;
44862;SDS011;30597;49.628;10.850;2023-03-14T06:03:16;2.40;;;2.03;;
44862;SDS011;30597;49.628;10.850;2023-03-14T06:05:42;3.77;;;3.00;;
44862;SDS011;30597;49.628;10.850;2023-03-14T06:08:07;2.60;;;2.40;;
44862;SDS011;30597;49.628;10.850;2023-03-14T06:10:34;2.10;;;1.90;;
44862;SDS011;30597;49.628;10.850;2023-03-14T06:13:00;2.50;;;2.30;;
44862;SDS011;30597;49.628;10.850;2023-03-14T06:15:26;2.40;;;1.90;;
44862;SDS011;30597;49.628;10.850;2023-03-14T06:17:53;3.20;;;2.40;;
44862;SDS011;30597;49.628;10.850;2023-03-14T06:20:19;2.97;;;2.70;;
44862;SDS011;30597;49.628;10.850;2023-03-14T06:22:45;2.47;;;2.27;;
44862;SDS011;30597;49.628;10.850;2023-03-14T06:25:10;2.63;;;2.43;;
44862;SDS011;30597;49.628;10.850;2023-03-14T06:27:36;2.50;;;2.30;;
44862;SDS011;30597;49.628;10.850;2023-03-14T06:30:02;2.40;;;2.17;;
44862;SDS011;30597;49.628;10.850;2023-03-14T06:32:27;2.40;;;2.20;;
44862;SDS011;30597;49.628;10.850;2023-03-14T06:34:53;2.50;;;2.30;;
44862;SDS011;30597;49.628;10.850;2023-03-14T06:37:19;2.60;;;2.00;;
44862;SDS011;30597;49.628;10.850;2023-03-14T06:39:44;2.10;;;1.90;;
44862;SDS011;30597;49.628;10.850;2023-03-14T06:42:10;2.87;;;2.67;;
44862;SDS011;30597;49.628;10.850;2023-03-14T06:44:35;2.90;;;2.37;;
44862;SDS011;30597;49.628;10.850;2023-03-14T06:47:01;2.70;;;2.50;;
44862;SDS011;30597;49.628;10.850;2023-03-14T06:49:27;2.47;;;2.27;;
44862;SDS011;30597;49.628;10.850;2023-03-14T06:51:52;2.53;;;2.33;;
44862;SDS011;30597;49.628;10.850;2023-03-14T06:54:18;3.30;;;2.53;;
44862;SDS011;30597;49.628;10.850;2023-03-14T06:56:44;2.50;;;2.30;;
44862;SDS011;30597;49.628;10.850;2023-03-14T06:59:09;2.40;;;2.20;;
44862;SDS011;30597;49.628;10.850;2023-03-14T07:01:35;2.53;;;2.33;;
44862;SDS011;30597;49.628;10.850;2023-03-14T07:04:01;2.47;;;2.27;;
44862;SDS011;30597;49.628;10.850;2023-03-14T07:06:27;4.10;;;2.83;;
44862;SDS011;30597;49.628;10.850;2023-03-14T07:08:54;3.07;;;2.80;;
44862;SDS011;30597;49.628;10.850;2023-03-14T07:11:20;2.73;;;2.30;;
44862;SDS011;30597;49.628;10.850;2023-03-14T07:13:46;2.80;;;2.17;;
44862;SDS011;30597;49.628;10.850;2023-03-14T07:16:11;2.60;;;2.37;;
44862;SDS011;30597;49.628;10.850;2023-03-14T07:18:37;2.50;;;2.30;;
44862;SDS011;30597;49.628;10.850;2023-03-14T07:21:03;2.80;;;2.50;;
44862;SDS011;30597;49.628;10.850;2023-03-14T07:23:29;2.97;;;2.77;;
44862;SDS011;30597;49.628;10.850;2023-03-14T07:25:55;2.90;;;2.50;;
44862;SDS011;30597;49.628;10.850;2023-03-14T07:28:21;3.40;;;3.10;;
44862;SDS011;30597;49.628;10.850;2023-03-14T07:30:48;3.00;;;2.70;;
44862;SDS011;30597;49.628;10.850;2023-03-14T07:33:14;3.30;;;3.00;;
44862;SDS011;30597;49.628;10.850;2023-03-14T07:35:39;3.30;;;3.00;;
44862;SDS011;30597;49.628;10.850;2023-03-14T07:38:05;2.97;;;2.67;;
44862;SDS011;30597;49.628;10.850;2023-03-14T07:40:30;3.40;;;3.00;;
44862;SDS011;30597;49.628;10.850;2023-03-14T07:42:56;3.60;;;3.30;;
44862;SDS011;30597;49.628;10.850;2023-03-14T07:45:22;3.27;;;2.97;;
44862;SDS011;30597;49.628;10.850;2023-03-14T07:47:47;3.47;;;3.17;;
44862;SDS011;30597;49.628;10.850;2023-03-14T07:50:13;3.10;;;2.80;;
44862;SDS011;30597;49.628;10.850;2023-03-14T07:52:39;3.17;;;2.90;;
44862;SDS011;30597;49.628;10.850;2023-03-14T07:55:04;3.00;;;2.80;;
44862;SDS011;30597;49.628;10.850;2023-03-14T07:57:30;3.40;;;3.10;;
44862;SDS011;30597;49.628;10.850;2023-03-14T07:59:56;3.30;;;3.00;;
44862;SDS011;30597;49.628;10.850;2023-03-14T08:02:21;3.10;;;2.90;;
44862;SDS011;30597;49.628;10.850;2023-03-14T08:04:49;3.50;;;3.20;;
44862;SDS011;30597;49.628;10.850;2023-03-14T08:07:14;3.43;;;3.13;;
44862;SDS011;30597;49.628;10.850;2023-03-14T08:09:40;3.00;;;2.80;;
44862;SDS011;30597;49.628;10.850;2023-03-14T08:12:06;3.03;;;2.77;;
44862;SDS011;30597;49.628;10.850;2023-03-14T08:14:32;3.50;;;3.20;;
44862;SDS011;30597;49.628;10.850;2023-03-14T08:16:58;3.60;;;3.30;;
44862;SDS011;30597;49.628;10.850;2023-03-14T08:19:23;3.40;;;3.10;;
44862;SDS011;30597;49.628;10.850;2023-03-14T08:21:49;3.23;;;2.93;;
44862;SDS011;30597;49.628;10.850;2023-03-14T08:24:15;3.57;;;3.27;;
44862;SDS011;30597;49.628;10.850;2023-03-14T08:26:40;3.17;;;2.80;;
44862;SDS011;30597;49.628;10.850;2023-03-14T08:29:06;3.03;;;2.60;;
44862;SDS011;30597;49.628;10.850;2023-03-14T08:31:33;3.97;;;3.60;;
44862;SDS011;30597;49.628;10.850;2023-03-14T08:33:59;2.93;;;2.63;;
44862;SDS011;30597;49.628;10.850;2023-03-14T08:36:26;2.90;;;2.63;;
44862;SDS011;30597;49.628;10.850;2023-03-14T08:38:52;2.93;;;2.70;;
44862;SDS011;30597;49.628;10.850;2023-03-14T08:41:18;3.40;;;3.10;;
44862;SDS011;30597;49.628;10.850;2023-03-14T08:43:43;4.50;;;2.93;;
44862;SDS011;30597;49.628;10.850;2023-03-14T08:46:09;3.20;;;2.90;;
44862;SDS011;30597;49.628;10.850;2023-03-14T08:48:34;2.77;;;2.57;;
44862;SDS011;30597;49.628;10.850;2023-03-14T08:51:06;3.00;;;2.70;;
44862;SDS011;30597;49.628;10.850;2023-03-14T08:53:33;2.80;;;2.33;;
44862;SDS011;30597;49.628;10.850;2023-03-14T08:55:59;3.73;;;2.70;;
44862;SDS011;30597;49.628;10.850;2023-03-14T08:58:24;2.80;;;2.60;;
44862;SDS011;30597;49.628;10.850;2023-03-14T09:00:50;3.90;;;2.70;;
44862;SDS011;30597;49.628;10.850;2023-03-14T09:03:16;3.13;;;2.30;;
44862;SDS011;30597;49.628;10.850;2023-03-14T09:05:41;3.67;;;2.43;;
44862;SDS011;30597;49.628;10.850;2023-03-14T09:08:07;3.47;;;2.70;;
44862;SDS011;30597;49.628;10.850;2023-03-14T09:10:32;2.60;;;2.40;;
44862;SDS011;30597;49.628;10.850;2023-03-14T09:12:58;2.50;;;2.30;;
44862;SDS011;30597;49.628;10.850;2023-03-14T09:15:25;2.67;;;2.30;;
44862;SDS011;30597;49.628;10.850;2023-03-14T09:17:50;3.10;;;2.27;;
44862;SDS011;30597;49.628;10.850;2023-03-14T09:20:16;2.60;;;2.10;;
44862;SDS011;30597;49.628;10.850;2023-03-14T09:22:41;2.30;;;2.10;;
44862;SDS011;30597;49.628;10.850;2023-03-14T09:25:07;2.43;;;2.23;;
44862;SDS011;30597;49.628;10.850;2023-03-14T09:27:33;3.30;;;2.23;;
44862;SDS011;30597;49.628;10.850;2023-03-14T09:29:58;2.37;;;2.17;;
44862;SDS011;30597;49.628;10.850;2023-03-14T09:32:24;2.53;;;2.33;;
44862;SDS011;30597;49.628;10.850;2023-03-14T09:34:50;2.70;;;2.50;;
44862;SDS011;30597;49.628;10.850;2023-03-14T09:37:15;2.60;;;2.33;;
44862;SDS011;30597;49.628;10.850;2023-03-14T09:39:42;2.97;;;2.27;;
44862;SDS011;30597;49.628;10.850;2023-03-14T09:42:08;2.10;;;1.90;;
44862;SDS011;30597;49.628;10.850;2023-03-14T09:44:41;3.30;;;2.50;;
44862;SDS011;30597;49.628;10.850;2023-03-14T09:47:29;2.70;;;2.50;;
44862;SDS011;30597;49.628;10.850;2023-03-14T09:49:55;3.20;;;2.83;;
44862;SDS011;30597;49.628;10.850;2023-03-14T09:52:24;3.10;;;1.97;;
44862;SDS011;30597;49.628;10.850;2023-03-14T09:57:27;2.87;;;2.47;;
44862;SDS011;30597;49.628;10.850;2023-03-14T09:59:54;4.03;;;2.53;;
44862;SDS011;30597;49.628;10.850;2023-03-14T10:02:24;3.50;;;2.60;;
44862;SDS011;30597;49.628;10.850;2023-03-14T10:04:53;2.20;;;2.00;;
44862;SDS011;30597;49.628;10.850;2023-03-14T10:07:37;4.40;;;2.80;;
44862;SDS011;30597;49.628;10.850;2023-03-14T10:10:08;3.30;;;2.67;;
44862;SDS011;30597;49.628;10.850;2023-03-14T10:12:36;4.03;;;2.50;;
44862;SDS011;30597;49.628;10.850;2023-03-14T10:15:07;2.93;;;2.60;;
44862;SDS011;30597;49.628;10.850;2023-03-14T10:17:39;3.43;;;2.70;;
44862;SDS011;30597;49.628;10.850;2023-03-14T10:20:14;3.30;;;2.63;;
44862;SDS011;30597;49.628;10.850;2023-03-14T10:23:22;4.43;;;2.83;;
44862;SDS011;30597;49.628;10.850;2023-03-14T10:26:00;3.93;;;2.60;;
44862;SDS011;30597;49.628;10.850;2023-03-14T10:28:38;4.10;;;2.60;;
44862;SDS011;30597;49.628;10.850;2023-03-14T10:31:04;3.80;;;3.03;;
44862;SDS011;30597;49.628;10.850;2023-03-14T10:33:31;2.90;;;2.23;;
44862;SDS011;30597;49.628;10.850;2023-03-14T10:36:02;3.77;;;2.70;;
44862;SDS011;30597;49.628;10.850;2023-03-14T10:38:31;3.10;;;2.50;;
44862;SDS011;30597;49.628;10.850;2023-03-14T10:40:58;3.57;;;2.87;;
44862;SDS011;30597;49.628;10.850;2023-03-14T10:43:25;5.97;;;2.50;;
44862;SDS011;30597;49.628;10.850;2023-03-14T10:46:05;2.90;;;2.60;;
44862;SDS011;30597;49.628;10.850;2023-03-14T10:48:35;3.87;;;2.97;;
44862;SDS011;30597;49.628;10.850;2023-03-14T10:51:18;3.83;;;3.40;;
44862;SDS011;30597;49.628;10.850;2023-03-14T10:53:50;5.80;;;3.17;;
44862;SDS011;30597;49.628;10.850;2023-03-14T10:56:33;4.73;;;3.70;;
44862;SDS011;30597;49.628;10.850;2023-03-14T10:59:00;6.57;;;3.10;;
44862;SDS011;30597;49.628;10.850;2023-03-14T11:01:36;3.70;;;2.50;;
44862;SDS011;30597;49.628;10.850;2023-03-14T11:04:21;6.23;;;3.10;;
44862;SDS011;30597;49.628;10.850;2023-03-14T11:09:42;4.67;;;3.37;;
44862;SDS011;30597;49.628;10.850;2023-03-14T11:12:52;4.23;;;3.20;;
44862;SDS011;30597;49.628;10.850;2023-03-14T11:15:31;5.73;;;3.57;;
44862;SDS011;30597;49.628;10.850;2023-03-14T11:18:13;4.87;;;3.43;;
44862;SDS011;30597;49.628;10.850;2023-03-14T11:20:45;3.90;;;2.90;;
44862;SDS011;30597;49.628;10.850;2023-03-14T11:23:21;5.40;;;3.50;;
44862;SDS011;30597;49.628;10.850;2023-03-14T11:25:56;6.07;;;3.73;;
44862;SDS011;30597;49.628;10.850;2023-03-14T11:28:47;4.53;;;4.00;;
44862;SDS011;30597;49.628;10.850;2023-03-14T11:31:28;5.80;;;4.00;;
44862;SDS011;30597;49.628;10.850;2023-03-14T11:36:29;5.27;;;3.60;;
44862;SDS011;30597;49.628;10.850;2023-03-14T11:39:18;5.03;;;4.53;;
44862;SDS011;30597;49.628;10.850;2023-03-14T11:41:46;4.70;;;4.20;;
44862;SDS011;30597;49.628;10.850;2023-03-14T11:44:18;5.00;;;4.23;;
44862;SDS011;30597;49.628;10.850;2023-03-14T11:46:54;5.90;;;4.43;;
44862;SDS011;30597;49.628;10.850;2023-03-14T11:52:14;6.83;;;5.60;;
44862;SDS011;30597;49.628;10.850;2023-03-14T11:58:17;6.53;;;4.70;;
44862;SDS011;30597;49.628;10.850;2023-03-14T12:00:48;6.13;;;5.03;;
44862;SDS011;30597;49.628;10.850;2023-03-14T12:05:53;6.23;;;5.00;;
44862;SDS011;30597;49.628;10.850;2023-03-14T12:08:29;5.90;;;5.40;;
44862;SDS011;30597;49.628;10.850;2023-03-14T12:10:55;6.43;;;5.70;;
44862;SDS011;30597;49.628;10.850;2023-03-14T12:13:32;6.00;;;5.40;;
44862;SDS011;30597;49.628;10.850;2023-03-14T12:16:03;5.70;;;5.10;;
44862;SDS011;30597;49.628;10.850;2023-03-14T12:18:32;6.70;;;5.43;;
44862;SDS011;30597;49.628;10.850;2023-03-14T12:21:08;5.70;;;5.10;;
44862;SDS011;30597;49.628;10.850;2023-03-14T12:23:55;6.00;;;5.40;;
44862;SDS011;30597;49.628;10.850;2023-03-14T12:26:26;7.07;;;5.90;;
44862;SDS011;30597;49.628;10.850;2023-03-14T12:29:14;7.03;;;6.27;;
44862;SDS011;30597;49.628;10.850;2023-03-14T12:31:42;6.60;;;6.00;;
44862;SDS011;30597;49.628;10.850;2023-03-14T12:39:35;6.03;;;5.43;;
44862;SDS011;30597;49.628;10.850;2023-03-14T12:42:11;5.40;;;4.90;;
44862;SDS011;30597;49.628;10.850;2023-03-14T12:44:40;6.80;;;5.50;;
44862;SDS011;30597;49.628;10.850;2023-03-14T12:49:41;5.30;;;4.80;;
44862;SDS011;30597;49.628;10.850;2023-03-14T12:52:14;5.27;;;4.77;;
44862;SDS011;30597;49.628;10.850;2023-03-14T12:54:55;5.90;;;5.30;;
44862;SDS011;30597;49.628;10.850;2023-03-14T12:57:42;5.93;;;5.37;;
44862;SDS011;30597;49.628;10.850;2023-03-14T13:00:22;5.23;;;4.70;;
44862;SDS011;30597;49.628;10.850;2023-03-14T13:02:54;4.83;;;4.33;;
44862;SDS011;30597;49.628;10.850;2023-03-14T13:05:57;5.33;;;4.63;;
44862;SDS011;30597;49.628;10.850;2023-03-14T13:08:44;6.47;;;4.40;;
44862;SDS011;30597;49.628;10.850;2023-03-14T13:11:12;6.17;;;5.07;;
44862;SDS011;30597;49.628;10.850;2023-03-14T13:13:42;5.83;;;4.70;;
44862;SDS011;30597;49.628;10.850;2023-03-14T13:16:14;5.20;;;4.70;;
44862;SDS011;30597;49.628;10.850;2023-03-14T13:18:43;5.87;;;4.90;;
44862;SDS011;30597;49.628;10.850;2023-03-14T13:21:20;6.30;;;5.27;;
44862;SDS011;30597;49.628;10.850;2023-03-14T13:23:55;6.00;;;5.40;;
44862;SDS011;30597;49.628;10.850;2023-03-14T13:26:22;5.60;;;5.00;;
44862;SDS011;30597;49.628;10.850;2023-03-14T13:28:50;6.80;;;6.13;;
44862;SDS011;30597;49.628;10.850;2023-03-14T13:31:20;6.80;;;5.73;;
44862;SDS011;30597;49.628;10.850;2023-03-14T13:34:01;6.00;;;5.33;;
44862;SDS011;30597;49.628;10.850;2023-03-14T13:36:31;6.80;;;6.10;;
44862;SDS011;30597;49.628;10.850;2023-03-14T13:39:00;5.90;;;5.30;;
44862;SDS011;30597;49.628;10.850;2023-03-14T13:41:27;6.27;;;5.67;;
44862;SDS011;30597;49.628;10.850;2023-03-14T13:44:37;7.17;;;5.70;;
44862;SDS011;30597;49.628;10.850;2023-03-14T13:46:48;5.43;;;4.93;;
44862;SDS011;30597;49.628;10.850;2023-03-14T13:49:18;6.60;;;5.03;;
44862;SDS011;30597;49.628;10.850;2023-03-14T13:51:50;6.80;;;6.07;;
44862;SDS011;30597;49.628;10.850;2023-03-14T13:54:16;6.73;;;5.77;;
44862;SDS011;30597;49.628;10.850;2023-03-14T13:56:44;6.90;;;5.53;;
44862;SDS011;30597;49.628;10.850;2023-03-14T13:59:30;7.00;;;5.33;;
44862;SDS011;30597;49.628;10.850;2023-03-14T14:01:57;5.63;;;5.03;;
44862;SDS011;30597;49.628;10.850;2023-03-14T14:04:25;6.63;;;6.03;;
44862;SDS011;30597;49.628;10.850;2023-03-14T14:07:01;6.10;;;5.50;;
44862;SDS011;30597;49.628;10.850;2023-03-14T14:09:37;5.97;;;5.37;;
44862;SDS011;30597;49.628;10.850;2023-03-14T14:14:47;6.20;;;5.60;;
44862;SDS011;30597;49.628;10.850;2023-03-14T14:17:24;6.67;;;6.00;;
44862;SDS011;30597;49.628;10.850;2023-03-14T14:20:04;6.97;;;5.57;;
44862;SDS011;30597;49.628;10.850;2023-03-14T14:22:33;5.80;;;5.13;;
44862;SDS011;30597;49.628;10.850;2023-03-14T14:24:59;6.53;;;5.10;;
44862;SDS011;30597;49.628;10.850;2023-03-14T14:27:33;5.80;;;5.20;;
44862;SDS011;30597;49.628;10.850;2023-03-14T14:30:06;6.00;;;5.40;;
44862;SDS011;30597;49.628;10.850;2023-03-14T14:32:50;5.07;;;4.57;;
44862;SDS011;30597;49.628;10.850;2023-03-14T14:35:30;6.13;;;5.53;;
44862;SDS011;30597;49.628;10.850;2023-03-14T14:37:57;6.03;;;5.50;;
44862;SDS011;30597;49.628;10.850;2023-03-14T14:40:24;6.00;;;4.93;;
44862;SDS011;30597;49.628;10.850;2023-03-14T14:42:52;5.40;;;4.90;;
44862;SDS011;30597;49.628;10.850;2023-03-14T14:45:19;5.47;;;4.70;;
44862;SDS011;30597;49.628;10.850;2023-03-14T14:47:50;5.60;;;4.93;;
44862;SDS011;30597;49.628;10.850;2023-03-14T14:50:29;7.07;;;5.40;;
44862;SDS011;30597;49.628;10.850;2023-03-14T14:52:59;5.83;;;5.13;;
44862;SDS011;30597;49.628;10.850;2023-03-14T14:55:31;6.23;;;5.60;;
44862;SDS011;30597;49.628;10.850;2023-03-14T14:58:10;5.53;;;4.70;;
44862;SDS011;30597;49.628;10.850;2023-03-14T15:00:39;6.10;;;5.50;;
44862;SDS011;30597;49.628;10.850;2023-03-14T15:03:10;5.83;;;5.30;;
44862;SDS011;30597;49.628;10.850;2023-03-14T15:05:38;7.80;;;5.17;;
44862;SDS011;30597;49.628;10.850;2023-03-14T15:08:08;5.53;;;5.00;;
44862;SDS011;30597;49.628;10.850;2023-03-14T15:10:34;6.67;;;6.07;;
44862;SDS011;30597;49.628;10.850;2023-03-14T15:13:00;6.27;;;5.37;;
44862;SDS011;30597;49.628;10.850;2023-03-14T15:15:25;5.53;;;4.97;;